createdAt,value
2018-12-20T00:02:28.332Z,9.90
2018-12-20T00:04:57.051Z,9.50
2018-12-20T00:07:25.960Z,9.40
2018-12-20T00:09:54.433Z,9.40
2018-12-20T00:12:22.843Z,9.40
2018-12-20T00:14:51.458Z,9.40
2018-12-20T00:17:25.906Z,9.30
2018-12-20T00:19:54.642Z,9.30
2018-12-20T00:22:23.543Z,9.30
2018-12-20T00:24:52.038Z,9.20
2018-12-20T00:27:20.458Z,9.30
2018-12-20T00:29:48.945Z,9.50
2018-12-20T00:32:17.412Z,9.20
2018-12-20T00:34:47.037Z,9.20
2018-12-20T00:37:14.462Z,9.10
2018-12-20T00:39:41.943Z,9.10
2018-12-20T00:42:10.627Z,9.10
2018-12-20T00:44:39.268Z,9.00
2018-12-20T00:47:07.831Z,9.00
2018-12-20T00:49:36.394Z,9.30
2018-12-20T00:52:04.959Z,9.00
2018-12-20T00:54:33.308Z,9.00
2018-12-20T00:57:01.819Z,9.30
2018-12-20T00:59:30.688Z,9.10
2018-12-20T01:01:58.038Z,8.90
2018-12-20T01:04:26.489Z,8.90
2018-12-20T01:06:55.511Z,8.80
2018-12-20T01:09:23.954Z,9.00
2018-12-20T01:11:52.458Z,8.80
2018-12-20T01:14:21.136Z,9.10
2018-12-20T01:16:50.122Z,8.80
2018-12-20T01:19:17.525Z,8.70
2018-12-20T01:21:46.218Z,8.70
2018-12-20T01:24:14.826Z,8.80
2018-12-20T01:26:43.317Z,8.80
2018-12-20T01:29:11.866Z,8.80
2018-12-20T01:31:40.685Z,8.80
2018-12-20T01:34:09.362Z,8.80
2018-12-20T01:36:38.699Z,8.90
2018-12-20T01:39:06.673Z,9.10
2018-12-20T01:41:35.206Z,8.80
2018-12-20T01:44:03.997Z,9.00
2018-12-20T01:46:32.636Z,9.00
2018-12-20T01:49:01.243Z,8.90
2018-12-20T01:51:29.854Z,8.90
2018-12-20T01:53:58.394Z,8.90
2018-12-20T01:56:26.894Z,8.90
2018-12-20T01:58:55.446Z,8.80
2018-12-20T02:01:24.196Z,8.90
2018-12-20T02:03:52.709Z,8.90
2018-12-20T02:06:21.290Z,8.90
2018-12-20T02:08:50.386Z,9.00
2018-12-20T02:11:18.840Z,8.90
2018-12-20T02:13:47.402Z,9.30
2018-12-20T02:16:16.079Z,8.90
2018-12-20T02:18:44.936Z,8.90
2018-12-20T02:21:13.889Z,8.90
2018-12-20T02:23:41.469Z,9.00
2018-12-20T02:26:09.972Z,8.90
2018-12-20T02:28:38.433Z,8.90
2018-12-20T02:31:06.877Z,8.40
2018-12-20T02:33:35.546Z,8.90
2018-12-20T02:36:04.104Z,8.90
2018-12-20T02:38:32.610Z,8.90
2018-12-20T02:41:01.088Z,8.90
2018-12-20T02:43:29.740Z,8.90
2018-12-20T02:45:58.510Z,8.90
2018-12-20T02:48:26.913Z,8.90
2018-12-20T02:50:55.432Z,8.90
2018-12-20T02:53:24.319Z,8.90
2018-12-20T02:55:51.822Z,8.90
2018-12-20T02:58:22.070Z,9.10
2018-12-20T03:00:49.615Z,9.00
2018-12-20T03:03:17.988Z,8.90
2018-12-20T03:05:46.792Z,9.00
2018-12-20T03:08:15.379Z,9.00
2018-12-20T03:10:44.040Z,9.00
2018-12-20T03:13:12.538Z,9.00
2018-12-20T03:15:41.388Z,9.00
2018-12-20T03:18:10.120Z,9.10
2018-12-20T03:20:37.831Z,9.00
2018-12-20T03:23:06.300Z,9.10
2018-12-20T03:25:34.820Z,9.00
2018-12-20T03:28:04.130Z,9.00
2018-12-20T03:30:31.502Z,9.10
2018-12-20T03:32:59.911Z,9.10
2018-12-20T03:35:28.567Z,9.10
2018-12-20T03:37:57.242Z,9.20
2018-12-20T03:40:25.678Z,9.20
2018-12-20T03:42:54.566Z,9.50
2018-12-20T03:45:28.601Z,9.20
2018-12-20T03:47:52.674Z,9.40
2018-12-20T03:50:21.427Z,9.20
2018-12-20T03:52:50.273Z,9.20
2018-12-20T03:55:18.969Z,9.20
2018-12-20T03:57:47.422Z,9.20
2018-12-20T04:00:16.359Z,9.10
2018-12-20T04:02:45.082Z,9.10
2018-12-20T04:05:13.862Z,9.20
2018-12-20T04:07:42.383Z,9.10
2018-12-20T04:10:10.991Z,9.10
2018-12-20T04:12:38.747Z,9.10
2018-12-20T04:15:07.485Z,9.00
2018-12-20T04:17:35.983Z,9.20
2018-12-20T04:20:05.253Z,9.20
2018-12-20T04:22:33.879Z,9.20
2018-12-20T04:25:02.340Z,9.20
2018-12-20T04:27:30.908Z,9.20
2018-12-20T04:29:59.565Z,9.20
2018-12-20T04:32:31.260Z,9.20
2018-12-20T04:34:59.712Z,9.20
2018-12-20T04:37:28.125Z,9.10
2018-12-20T04:39:56.834Z,9.20
2018-12-20T04:42:26.932Z,9.50
2018-12-20T04:44:54.346Z,9.20
2018-12-20T04:47:22.812Z,9.50
2018-12-20T04:49:51.393Z,9.20
2018-12-20T04:52:20.019Z,9.20
2018-12-20T04:54:48.424Z,9.30
2018-12-20T04:57:17.134Z,9.30
2018-12-20T04:59:45.821Z,9.30
2018-12-20T05:02:14.449Z,9.30
2018-12-20T05:04:54.451Z,9.30
2018-12-20T05:07:22.947Z,9.30
2018-12-20T05:09:50.285Z,9.30
2018-12-20T05:12:17.879Z,9.30
2018-12-20T05:14:45.412Z,9.30
2018-12-20T05:17:12.921Z,9.40
2018-12-20T05:19:40.550Z,9.30
2018-12-20T05:22:08.365Z,9.30
2018-12-20T05:24:35.732Z,9.10
2018-12-20T05:27:03.146Z,9.30
2018-12-20T05:29:30.975Z,9.60
2018-12-20T05:31:58.533Z,9.30
2018-12-20T05:34:26.063Z,9.30
2018-12-20T05:36:54.730Z,9.30
2018-12-20T05:39:23.199Z,9.20
2018-12-20T05:41:51.888Z,9.40
2018-12-20T05:44:20.424Z,9.30
2018-12-20T05:46:48.868Z,9.30
2018-12-20T05:49:17.409Z,9.40
2018-12-20T05:51:45.883Z,9.20
2018-12-20T05:54:14.461Z,9.70
2018-12-20T05:56:43.111Z,9.30
2018-12-20T05:59:15.409Z,9.50
2018-12-20T06:01:43.001Z,9.50
2018-12-20T06:04:11.602Z,9.30
2018-12-20T06:06:40.388Z,9.30
2018-12-20T06:09:09.027Z,9.20
2018-12-20T06:11:37.797Z,9.20
2018-12-20T06:14:06.459Z,9.30
2018-12-20T06:16:34.961Z,9.40
2018-12-20T06:19:03.611Z,9.70
2018-12-20T06:21:32.159Z,9.20
2018-12-20T06:24:00.578Z,9.20
2018-12-20T06:26:28.885Z,9.20
2018-12-20T06:28:57.271Z,9.10
2018-12-20T06:31:25.640Z,9.20
2018-12-20T06:33:54.076Z,9.20
2018-12-20T06:36:22.608Z,9.60
2018-12-20T06:38:51.140Z,8.50
2018-12-20T06:41:19.542Z,9.50
2018-12-20T06:43:48.057Z,9.40
2018-12-20T06:46:21.153Z,9.50
2018-12-20T06:48:48.344Z,9.10
2018-12-20T06:51:16.616Z,9.10
2018-12-20T06:53:50.736Z,9.10
2018-12-20T06:56:18.192Z,9.10
2018-12-20T06:58:45.970Z,9.10
2018-12-20T07:01:13.290Z,9.10
2018-12-20T07:03:40.582Z,9.10
2018-12-20T07:06:07.833Z,9.00
2018-12-20T07:08:36.196Z,9.00
2018-12-20T07:11:04.564Z,8.80
2018-12-20T07:13:32.957Z,9.00
2018-12-20T07:16:01.349Z,9.00
2018-12-20T07:18:29.806Z,9.00
2018-12-20T07:20:59.169Z,9.00
2018-12-20T07:23:26.542Z,9.00
2018-12-20T07:25:54.966Z,9.00
2018-12-20T07:28:23.341Z,9.00
2018-12-20T07:30:51.817Z,8.90
2018-12-20T07:33:20.437Z,8.80
2018-12-20T07:35:48.921Z,8.90
2018-12-20T07:38:17.729Z,8.70
2018-12-20T07:40:46.190Z,8.90
2018-12-20T07:43:16.057Z,8.60
2018-12-20T07:45:43.349Z,8.80
2018-12-20T07:48:11.631Z,8.80
2018-12-20T07:50:40.023Z,8.60
2018-12-20T07:53:08.329Z,9.00
2018-12-20T07:55:36.686Z,8.60
2018-12-20T07:58:05.114Z,8.80
2018-12-20T08:00:34.259Z,8.80
2018-12-20T08:03:02.882Z,8.80
2018-12-20T08:05:31.246Z,8.80
2018-12-20T08:07:59.613Z,8.80
2018-12-20T08:10:28.036Z,8.80
2018-12-20T08:12:56.413Z,8.80
2018-12-20T08:15:24.974Z,8.80
2018-12-20T08:17:53.444Z,8.80
2018-12-20T08:20:23.521Z,8.60
2018-12-20T08:22:50.813Z,8.80
2018-12-20T08:25:19.230Z,9.50
2018-12-20T08:27:47.607Z,8.90
2018-12-20T08:30:16.417Z,8.90
2018-12-20T08:32:44.926Z,9.00
2018-12-20T08:35:13.304Z,9.20
2018-12-20T08:37:41.694Z,9.00
2018-12-20T08:40:10.687Z,9.40
2018-12-20T08:42:39.307Z,8.90
2018-12-20T08:45:08.076Z,9.00
2018-12-20T08:47:36.853Z,9.00
2018-12-20T08:50:06.157Z,9.10
2018-12-20T08:52:34.437Z,9.10
2018-12-20T08:55:03.241Z,9.10
2018-12-20T08:57:31.537Z,8.90
2018-12-20T09:00:00.961Z,9.10
2018-12-20T09:02:29.294Z,9.10
2018-12-20T09:04:57.755Z,9.10
2018-12-20T09:07:26.226Z,9.10
2018-12-20T09:09:54.784Z,9.10
2018-12-20T09:12:25.376Z,9.10
2018-12-20T09:14:52.678Z,9.10
2018-12-20T09:17:21.153Z,9.10
2018-12-20T09:19:49.534Z,9.10
2018-12-20T09:22:18.108Z,9.00
2018-12-20T09:24:48.907Z,9.10
2018-12-20T09:27:16.274Z,8.80
2018-12-20T09:29:43.593Z,9.50
2018-12-20T09:32:11.977Z,9.10
2018-12-20T09:34:40.366Z,9.10
2018-12-20T09:37:09.010Z,9.20
2018-12-20T09:39:38.790Z,9.30
2018-12-20T09:42:07.165Z,9.30
2018-12-20T09:44:35.462Z,9.00
2018-12-20T09:47:11.925Z,9.30
2018-12-20T09:49:42.592Z,9.30
2018-12-20T09:52:09.903Z,9.30
2018-12-20T09:54:37.172Z,9.20
2018-12-20T09:57:05.556Z,9.20
2018-12-20T09:59:33.946Z,9.20
2018-12-20T10:02:02.334Z,9.20
2018-12-20T10:04:33.478Z,9.60
2018-12-20T10:07:00.767Z,9.30
2018-12-20T10:09:27.998Z,9.50
2018-12-20T10:11:56.466Z,9.50
2018-12-20T10:14:24.949Z,9.40
2018-12-20T10:16:57.678Z,9.40
2018-12-20T10:19:25.095Z,9.40
2018-12-20T10:21:53.678Z,9.70
2018-12-20T10:24:21.017Z,9.60
2018-12-20T10:26:48.985Z,9.60
2018-12-20T10:29:16.326Z,9.50
2018-12-20T10:31:43.597Z,9.10
2018-12-20T10:34:12.207Z,9.40
2018-12-20T10:36:39.509Z,9.30
2018-12-20T10:39:08.239Z,9.30
2018-12-20T10:41:36.653Z,9.80
2018-12-20T10:44:05.022Z,9.20
2018-12-20T10:46:36.888Z,9.20
2018-12-20T10:49:04.330Z,9.20
2018-12-20T10:51:31.588Z,9.40
2018-12-20T10:53:58.955Z,9.20
2018-12-20T10:56:26.441Z,9.40
2018-12-20T10:58:56.344Z,9.30
2018-12-20T11:01:32.788Z,9.40
2018-12-20T11:04:07.010Z,9.40
2018-12-20T11:06:45.296Z,9.40
2018-12-20T11:09:20.422Z,9.40
2018-12-20T11:11:53.279Z,9.50
2018-12-20T11:14:25.427Z,9.50
2018-12-20T11:16:52.701Z,9.60
2018-12-20T11:19:21.288Z,9.20
2018-12-20T11:21:48.677Z,9.30
2018-12-20T11:24:15.995Z,8.90
2018-12-20T11:26:43.302Z,9.30
2018-12-20T11:29:14.495Z,9.40
2018-12-20T11:31:41.891Z,9.40
2018-12-20T11:34:09.181Z,9.40
2018-12-20T11:36:36.572Z,9.50
2018-12-20T11:39:08.522Z,9.40
2018-12-20T11:41:39.041Z,10.00
2018-12-20T11:44:07.573Z,9.60
2018-12-20T11:46:35.982Z,9.70
2018-12-20T11:49:04.429Z,9.70
2018-12-20T11:51:32.949Z,9.70
2018-12-20T11:54:06.113Z,9.70
2018-12-20T11:56:33.370Z,9.60
2018-12-20T11:59:00.890Z,9.60
2018-12-20T12:01:28.162Z,9.70
2018-12-20T12:03:57.545Z,9.60
2018-12-20T12:06:25.886Z,9.70
2018-12-20T12:08:57.560Z,9.70
2018-12-20T12:11:24.919Z,9.60
2018-12-20T12:13:52.260Z,9.60
2018-12-20T12:16:20.781Z,9.60
2018-12-20T12:18:49.425Z,9.50
2018-12-20T12:21:16.721Z,9.80
2018-12-20T12:23:46.989Z,9.80
2018-12-20T12:26:14.273Z,9.80
2018-12-20T12:28:42.641Z,9.90
2018-12-20T12:31:11.074Z,10.00
2018-12-20T12:33:39.495Z,9.80
2018-12-20T12:36:07.829Z,9.80
2018-12-20T12:38:37.678Z,9.80
2018-12-20T12:41:06.029Z,9.80
2018-12-20T12:43:34.469Z,9.90
2018-12-20T12:46:03.021Z,9.90
2018-12-20T12:48:32.318Z,9.80
2018-12-20T12:51:00.790Z,9.80
2018-12-20T12:53:29.195Z,9.60
2018-12-20T12:55:57.617Z,9.70
2018-12-20T12:58:26.131Z,10.10
2018-12-20T13:00:54.540Z,9.90
2018-12-20T13:03:22.932Z,10.10
2018-12-20T13:05:51.460Z,9.90
2018-12-20T13:08:25.050Z,9.90
2018-12-20T13:10:52.373Z,9.80
2018-12-20T13:13:19.811Z,9.40
2018-12-20T13:15:47.572Z,9.80
2018-12-20T13:18:14.818Z,9.80
2018-12-20T13:20:43.081Z,9.90
2018-12-20T13:23:11.523Z,9.90
2018-12-20T13:25:39.833Z,9.90
2018-12-20T13:28:08.287Z,9.90
2018-12-20T13:30:36.676Z,9.90
2018-12-20T13:33:05.236Z,9.80
2018-12-20T13:35:34.587Z,9.90
2018-12-20T13:38:02.835Z,9.80
2018-12-20T13:40:31.178Z,9.80
2018-12-20T13:42:59.613Z,9.80
2018-12-20T13:45:27.936Z,9.80
2018-12-20T13:47:57.801Z,9.80
2018-12-20T13:50:25.135Z,9.80
2018-12-20T13:52:53.958Z,9.80
2018-12-20T13:55:22.466Z,9.80
2018-12-20T13:57:51.006Z,9.80
2018-12-20T14:00:19.570Z,9.80
2018-12-20T14:02:47.924Z,9.80
2018-12-20T14:05:16.385Z,9.80
2018-12-20T14:07:44.821Z,9.70
2018-12-20T14:10:13.394Z,9.80
2018-12-20T14:12:42.197Z,9.80
2018-12-20T14:15:10.452Z,9.70
2018-12-20T14:17:38.877Z,9.80
2018-12-20T14:20:07.382Z,9.80
2018-12-20T14:22:35.735Z,9.80
2018-12-20T14:25:04.786Z,9.80
2018-12-20T14:27:33.127Z,9.80
2018-12-20T14:30:01.608Z,9.80
2018-12-20T14:32:30.044Z,9.80
2018-12-20T14:34:58.455Z,9.80
2018-12-20T14:37:27.265Z,9.80
2018-12-20T14:39:55.697Z,10.10
2018-12-20T14:42:24.206Z,9.90
2018-12-20T14:44:52.728Z,9.90
2018-12-20T14:47:21.607Z,9.80
2018-12-20T14:49:48.809Z,9.80
2018-12-20T14:52:17.725Z,9.70
2018-12-20T14:54:46.034Z,9.70
2018-12-20T14:57:14.409Z,9.70
2018-12-20T14:59:42.849Z,10.00
2018-12-20T15:02:12.498Z,9.60
2018-12-20T15:04:39.721Z,9.60
2018-12-20T15:07:10.935Z,9.60
2018-12-20T15:09:38.137Z,9.30
2018-12-20T15:12:05.342Z,9.60
2018-12-20T15:14:32.645Z,9.60
2018-12-20T15:17:00.913Z,9.70
2018-12-20T15:19:32.171Z,9.60
2018-12-20T15:21:59.502Z,9.60
2018-12-20T15:24:26.943Z,9.60
2018-12-20T15:26:54.230Z,9.60
2018-12-20T15:29:22.738Z,9.50
2018-12-20T15:31:56.305Z,9.50
2018-12-20T15:34:23.547Z,9.50
2018-12-20T15:36:50.946Z,9.40
2018-12-20T15:39:18.985Z,9.40
2018-12-20T15:41:46.458Z,9.50
2018-12-20T15:44:20.098Z,9.50
2018-12-20T15:46:47.334Z,9.40
2018-12-20T15:49:14.669Z,9.40
2018-12-20T15:51:41.919Z,9.20
2018-12-20T15:54:09.358Z,9.20
2018-12-20T15:56:36.597Z,9.30
2018-12-20T15:59:11.294Z,9.20
2018-12-20T16:01:38.528Z,9.20
2018-12-20T16:04:05.949Z,9.30
2018-12-20T16:06:33.173Z,9.30
2018-12-20T16:09:00.375Z,9.30
2018-12-20T16:11:28.929Z,9.30
2018-12-20T16:14:02.256Z,9.30
2018-12-20T16:16:29.468Z,9.20
2018-12-20T16:19:04.710Z,9.20
2018-12-20T16:21:26.075Z,9.30
2018-12-20T16:23:53.283Z,9.20
2018-12-20T16:26:24.836Z,9.20
2018-12-20T16:28:52.176Z,9.20
2018-12-20T16:31:19.480Z,9.20
2018-12-20T16:33:46.827Z,9.10
2018-12-20T16:36:14.170Z,9.10
2018-12-20T16:38:42.534Z,9.20
2018-12-20T16:41:12.661Z,9.10
2018-12-20T16:43:40.034Z,9.10
2018-12-20T16:46:07.253Z,9.20
2018-12-20T16:48:35.508Z,9.10
2018-12-20T16:51:03.954Z,9.10
2018-12-20T16:53:32.270Z,9.10
2018-12-20T16:56:00.838Z,9.10
2018-12-20T16:58:29.254Z,9.00
2018-12-20T17:00:57.697Z,9.10
2018-12-20T17:03:26.151Z,9.10
2018-12-20T17:05:54.432Z,8.90
2018-12-20T17:08:22.898Z,9.20
2018-12-20T17:10:51.519Z,9.20
2018-12-20T17:13:20.073Z,9.00
2018-12-20T17:15:48.549Z,9.10
2018-12-20T17:18:16.927Z,9.00
2018-12-20T17:20:45.461Z,8.90
2018-12-20T17:23:13.833Z,9.00
2018-12-20T17:25:42.169Z,9.00
2018-12-20T17:28:10.581Z,9.00
2018-12-20T17:30:38.933Z,9.00
2018-12-20T17:33:07.302Z,9.00
2018-12-20T17:35:35.856Z,8.90
2018-12-20T17:38:04.234Z,8.90
2018-12-20T17:40:32.578Z,8.90
2018-12-20T17:43:00.904Z,8.90
2018-12-20T17:45:29.232Z,8.90
2018-12-20T17:47:57.512Z,8.90
2018-12-20T17:50:26.073Z,9.00
2018-12-20T17:52:54.326Z,8.90
2018-12-20T17:55:22.774Z,8.90
2018-12-20T17:57:51.284Z,8.90
2018-12-20T18:00:18.695Z,8.90
2018-12-20T18:02:47.188Z,9.40
2018-12-20T18:05:15.649Z,9.00
2018-12-20T18:07:44.056Z,9.10
2018-12-20T18:10:12.592Z,9.00
2018-12-20T18:12:41.220Z,8.90
2018-12-20T18:15:11.556Z,9.00
2018-12-20T18:17:39.950Z,9.40
2018-12-20T18:20:09.695Z,9.00
2018-12-20T18:22:37.998Z,9.00
2018-12-20T18:25:07.159Z,8.90
2018-12-20T18:27:35.488Z,8.80
2018-12-20T18:30:06.600Z,8.90
2018-12-20T18:32:34.894Z,8.90
2018-12-20T18:35:03.861Z,9.00
2018-12-20T18:37:32.440Z,9.00
2018-12-20T18:40:00.907Z,9.00
2018-12-20T18:42:29.183Z,9.00
2018-12-20T18:44:57.438Z,9.10
2018-12-20T18:47:25.684Z,8.60
2018-12-20T18:49:54.077Z,9.00
2018-12-20T18:52:22.496Z,9.00
2018-12-20T18:54:50.840Z,9.00
2018-12-20T18:57:19.366Z,9.00
2018-12-20T18:59:48.124Z,8.90
2018-12-20T19:02:16.762Z,8.80
2018-12-20T19:04:44.994Z,8.80
2018-12-20T19:07:13.458Z,8.90
2018-12-20T19:09:41.777Z,8.90
2018-12-20T19:12:10.247Z,8.90
2018-12-20T19:14:38.555Z,9.00
2018-12-20T19:17:08.451Z,8.90
2018-12-20T19:19:35.612Z,8.90
2018-12-20T19:22:04.086Z,9.00
2018-12-20T19:24:32.695Z,8.90
2018-12-20T19:27:01.124Z,9.20
2018-12-20T19:29:28.372Z,8.90
2018-12-20T19:31:57.076Z,8.90
2018-12-20T19:34:25.402Z,8.90
2018-12-20T19:36:53.877Z,9.00
2018-12-20T19:39:23.514Z,8.80
2018-12-20T19:41:52.158Z,8.90
2018-12-20T19:44:20.608Z,8.90
2018-12-20T19:46:49.958Z,9.00
2018-12-20T19:49:18.570Z,8.90
2018-12-20T19:51:47.439Z,9.00
2018-12-20T19:54:14.846Z,9.00
2018-12-20T19:56:43.678Z,8.90
2018-12-20T19:59:12.121Z,8.90
2018-12-20T20:01:40.559Z,8.90
2018-12-20T20:04:09.016Z,8.90
2018-12-20T20:06:37.636Z,8.90
2018-12-20T20:09:06.906Z,8.90
2018-12-20T20:11:35.237Z,9.40
2018-12-20T20:14:03.964Z,9.00
2018-12-20T20:16:32.478Z,8.90
2018-12-20T20:19:00.915Z,9.30
2018-12-20T20:21:29.711Z,9.00
2018-12-20T20:23:58.333Z,8.90
2018-12-20T20:26:26.837Z,8.90
2018-12-20T20:28:55.258Z,8.20
2018-12-20T20:31:23.537Z,8.90
2018-12-20T20:33:51.934Z,8.90
2018-12-20T20:36:20.539Z,8.90
2018-12-20T20:38:49.194Z,8.90
2018-12-20T20:41:17.550Z,8.90
2018-12-20T20:43:46.233Z,9.10
2018-12-20T20:46:14.766Z,8.80
2018-12-20T20:48:43.203Z,8.90
2018-12-20T20:51:11.850Z,8.90
2018-12-20T20:53:40.500Z,8.80
2018-12-20T20:56:08.751Z,8.90
2018-12-20T20:58:37.316Z,8.90
2018-12-20T21:01:05.664Z,8.90
2018-12-20T21:03:34.153Z,8.90
2018-12-20T21:06:02.654Z,8.90
2018-12-20T21:08:31.241Z,9.00
2018-12-20T21:10:59.697Z,9.00
2018-12-20T21:13:28.232Z,9.20
2018-12-20T21:15:58.158Z,9.10
2018-12-20T21:18:26.788Z,9.00
2018-12-20T21:20:55.307Z,9.00
2018-12-20T21:23:23.706Z,9.00
2018-12-20T21:25:52.357Z,9.00
2018-12-20T21:28:23.061Z,9.10
2018-12-20T21:30:50.540Z,9.10
2018-12-20T21:33:19.094Z,9.10
2018-12-20T21:35:47.708Z,9.10
2018-12-20T21:38:16.114Z,9.00
2018-12-20T21:40:44.518Z,8.90
2018-12-20T21:43:12.910Z,9.00
2018-12-20T21:45:41.357Z,8.90
2018-12-20T21:48:09.724Z,9.00
2018-12-20T21:50:39.060Z,9.10
2018-12-20T21:53:07.778Z,9.10
2018-12-20T21:55:36.272Z,9.00
2018-12-20T21:58:04.787Z,8.90
2018-12-20T22:00:33.209Z,8.90
2018-12-20T22:03:01.577Z,8.90
2018-12-20T22:05:30.192Z,8.80
2018-12-20T22:07:58.829Z,8.80
2018-12-20T22:10:27.546Z,8.40
2018-12-20T22:12:55.877Z,8.80
2018-12-20T22:15:24.281Z,8.60
2018-12-20T22:17:52.835Z,9.00
2018-12-20T22:20:20.101Z,8.60
2018-12-20T22:22:48.405Z,8.70
2018-12-20T22:25:22.889Z,8.60
2018-12-20T22:27:50.222Z,8.60
2018-12-20T22:30:17.512Z,8.60
2018-12-20T22:32:46.561Z,8.70
2018-12-20T22:35:14.317Z,8.80
2018-12-20T22:37:41.614Z,8.80
2018-12-20T22:40:08.969Z,8.90
2018-12-20T22:42:36.326Z,9.00
2018-12-20T22:45:06.161Z,9.00
2018-12-20T22:47:34.667Z,9.00
2018-12-20T22:50:03.554Z,9.10
2018-12-20T22:52:30.865Z,9.10
2018-12-20T22:55:00.982Z,9.10
2018-12-20T22:57:29.316Z,8.70
2018-12-20T22:59:58.042Z,9.10
2018-12-20T23:02:26.961Z,9.10
2018-12-20T23:04:55.937Z,9.10
2018-12-20T23:07:25.708Z,9.10
2018-12-20T23:09:53.171Z,9.20
2018-12-20T23:12:22.501Z,9.10
2018-12-20T23:14:51.339Z,9.10
2018-12-20T23:17:18.866Z,9.10
2018-12-20T23:19:47.515Z,9.50
2018-12-20T23:22:15.866Z,9.10
2018-12-20T23:24:44.289Z,9.10
2018-12-20T23:27:12.845Z,8.80
2018-12-20T23:29:41.478Z,9.00
2018-12-20T23:32:10.378Z,9.00
2018-12-20T23:34:38.773Z,8.90
2018-12-20T23:37:07.198Z,9.30
2018-12-20T23:39:35.594Z,8.90
2018-12-20T23:42:05.461Z,8.90
2018-12-20T23:44:32.956Z,8.90
2018-12-20T23:47:03.988Z,8.90
2018-12-20T23:49:31.282Z,8.90
2018-12-20T23:51:58.526Z,8.90
2018-12-20T23:54:27.412Z,8.90
2018-12-20T23:56:54.693Z,9.00
2018-12-20T23:59:21.945Z,9.00
